createdAt,value
2022-10-12T00:00:32.427Z,99.99
2022-10-12T00:01:32.480Z,99.99
2022-10-12T00:02:32.372Z,99.99
2022-10-12T00:03:32.372Z,99.99
2022-10-12T00:04:32.348Z,99.99
2022-10-12T00:05:32.326Z,99.99
2022-10-12T00:06:32.326Z,99.99
2022-10-12T00:07:32.308Z,99.99
2022-10-12T00:08:32.286Z,99.99
2022-10-12T00:09:32.301Z,99.99
2022-10-12T00:10:32.270Z,99.99
2022-10-12T00:11:32.241Z,99.99
2022-10-12T00:12:32.283Z,99.99
2022-10-12T00:13:32.251Z,99.99
2022-10-12T00:14:32.230Z,99.99
2022-10-12T00:15:32.187Z,99.99
2022-10-12T00:17:28.427Z,99.99
2022-10-12T00:18:28.470Z,99.99
2022-10-12T00:19:28.368Z,99.99
2022-10-12T00:20:28.402Z,99.99
2022-10-12T00:21:28.350Z,99.99
2022-10-12T00:22:28.354Z,99.99
2022-10-12T00:23:28.320Z,99.99
2022-10-12T00:24:28.306Z,99.99
2022-10-12T00:25:28.292Z,99.99
2022-10-12T00:26:28.288Z,99.99
2022-10-12T00:27:28.273Z,99.99
2022-10-12T00:28:28.337Z,99.99
2022-10-12T00:29:28.244Z,99.99
2022-10-12T00:30:28.257Z,99.99
2022-10-12T00:31:28.212Z,99.99
2022-10-12T00:32:28.213Z,99.99
2022-10-12T00:33:28.182Z,99.99
2022-10-12T00:34:28.217Z,99.99
2022-10-12T00:35:28.163Z,99.99
2022-10-12T00:36:28.146Z,99.99
2022-10-12T00:37:28.132Z,99.99
2022-10-12T00:38:28.138Z,99.99
2022-10-12T00:39:28.119Z,99.99
2022-10-12T00:40:28.121Z,99.99
2022-10-12T00:41:28.085Z,99.99
2022-10-12T00:42:28.098Z,99.99
2022-10-12T00:43:28.062Z,99.99
2022-10-12T00:44:28.073Z,99.99
2022-10-12T00:45:28.027Z,99.99
2022-10-12T00:46:28.015Z,99.99
2022-10-12T00:47:28.007Z,99.99
2022-10-12T00:48:28.017Z,99.99
2022-10-12T00:49:27.980Z,99.99
2022-10-12T00:50:27.959Z,99.99
2022-10-12T00:51:27.983Z,99.99
2022-10-12T00:52:27.946Z,99.99
2022-10-12T00:53:27.929Z,99.99
2022-10-12T00:54:27.936Z,99.99
2022-10-12T00:55:27.909Z,99.99
2022-10-12T00:56:27.897Z,99.99
2022-10-12T00:57:27.873Z,99.99
2022-10-12T00:58:27.855Z,99.99
2022-10-12T00:59:27.855Z,99.99
2022-10-12T01:00:27.847Z,99.99
2022-10-12T01:01:27.872Z,99.99
2022-10-12T01:02:27.816Z,99.99
2022-10-12T01:03:27.801Z,99.99
2022-10-12T01:04:27.788Z,99.99
2022-10-12T01:05:27.776Z,99.99
2022-10-12T01:06:27.759Z,99.99
2022-10-12T01:07:27.753Z,99.99
2022-10-12T01:08:27.734Z,99.99
2022-10-12T01:09:27.739Z,99.99
2022-10-12T01:10:27.713Z,99.99
2022-10-12T01:11:27.696Z,99.99
2022-10-12T01:12:27.681Z,99.99
2022-10-12T01:13:27.667Z,99.99
2022-10-12T01:14:27.658Z,99.99
2022-10-12T01:15:27.661Z,99.99
2022-10-12T01:16:27.623Z,99.99
2022-10-12T01:17:27.646Z,99.99
2022-10-12T01:18:27.610Z,99.99
2022-10-12T01:19:27.590Z,99.99
2022-10-12T01:20:27.581Z,99.99
2022-10-12T01:21:27.568Z,99.99
2022-10-12T01:22:27.551Z,99.99
2022-10-12T01:23:27.564Z,99.99
2022-10-12T01:24:27.528Z,99.99
2022-10-12T01:25:27.517Z,99.99
2022-10-12T01:26:27.493Z,99.99
2022-10-12T01:27:27.478Z,99.99
2022-10-12T01:28:27.519Z,99.99
2022-10-12T01:29:27.458Z,99.99
2022-10-12T01:30:27.449Z,99.99
2022-10-12T01:31:32.266Z,99.99
2022-10-12T01:32:28.424Z,99.99
2022-10-12T01:33:27.414Z,99.99
2022-10-12T01:34:27.425Z,99.99
2022-10-12T01:35:27.402Z,99.99
2022-10-12T01:36:27.369Z,99.99
2022-10-12T01:37:27.363Z,99.99
2022-10-12T01:38:27.352Z,99.99
2022-10-12T01:39:27.329Z,99.99
2022-10-12T01:40:27.345Z,99.99
2022-10-12T01:41:27.313Z,99.99
2022-10-12T01:42:27.359Z,99.99
2022-10-12T01:43:27.286Z,99.99
2022-10-12T01:44:27.271Z,99.99
2022-10-12T01:45:27.257Z,99.99
2022-10-12T01:46:27.264Z,99.99
2022-10-12T01:47:27.234Z,99.99
2022-10-12T01:48:27.215Z,99.99
2022-10-12T01:49:27.219Z,99.99
2022-10-12T01:50:27.228Z,99.99
2022-10-12T01:51:27.182Z,99.99
2022-10-12T01:52:27.184Z,99.99
2022-10-12T01:53:27.166Z,99.99
2022-10-12T01:54:27.142Z,99.99
2022-10-12T01:55:27.143Z,99.99
2022-10-12T01:56:27.110Z,99.99
2022-10-12T01:57:27.132Z,99.99
2022-10-12T01:58:27.099Z,99.99
2022-10-12T01:59:27.080Z,99.99
2022-10-12T02:00:27.076Z,99.99
2022-10-12T02:01:27.105Z,99.99
2022-10-12T02:02:27.036Z,99.99
2022-10-12T02:03:27.057Z,99.99
2022-10-12T02:04:27.017Z,99.99
2022-10-12T02:05:27.005Z,99.99
2022-10-12T02:06:26.980Z,99.99
2022-10-12T02:07:26.979Z,99.99
2022-10-12T02:08:26.967Z,99.99
2022-10-12T02:09:26.966Z,99.99
2022-10-12T02:10:26.929Z,99.99
2022-10-12T02:11:26.926Z,99.99
2022-10-12T02:12:26.909Z,99.99
2022-10-12T02:13:26.916Z,99.99
2022-10-12T02:14:26.909Z,99.99
2022-10-12T02:15:26.883Z,99.99
2022-10-12T02:16:26.861Z,99.99
2022-10-12T02:17:26.854Z,99.99
2022-10-12T02:18:26.829Z,99.99
2022-10-12T02:19:26.827Z,99.99
2022-10-12T02:20:26.926Z,99.99
2022-10-12T02:21:26.830Z,99.99
2022-10-12T02:22:27.209Z,99.99
2022-10-12T02:23:27.072Z,99.99
2022-10-12T02:24:27.002Z,99.99
2022-10-12T02:25:26.869Z,99.99
2022-10-12T02:26:27.135Z,99.99
2022-10-12T02:27:26.893Z,99.99
2022-10-12T02:28:26.856Z,99.99
2022-10-12T02:29:26.864Z,99.99
2022-10-12T02:30:26.833Z,99.99
2022-10-12T02:31:26.832Z,99.99
2022-10-12T02:32:26.749Z,99.99
2022-10-12T02:33:26.729Z,99.99
2022-10-12T02:34:26.711Z,99.99
2022-10-12T02:35:26.812Z,99.99
2022-10-12T02:36:26.880Z,99.99
2022-10-12T02:37:26.847Z,99.99
2022-10-12T02:38:26.674Z,99.99
2022-10-12T02:39:26.693Z,99.99
2022-10-12T02:40:26.680Z,99.99
2022-10-12T02:41:26.717Z,99.99
2022-10-12T02:42:26.637Z,99.99
2022-10-12T02:43:26.715Z,99.99
2022-10-12T02:44:26.545Z,99.99
2022-10-12T02:45:26.558Z,99.99
2022-10-12T02:46:26.621Z,99.99
2022-10-12T02:47:26.600Z,99.99
2022-10-12T02:48:26.533Z,99.99
2022-10-12T02:49:26.598Z,99.99
2022-10-12T02:50:26.662Z,99.99
2022-10-12T02:51:26.529Z,99.99
2022-10-12T02:52:26.491Z,99.99
2022-10-12T02:53:26.579Z,99.99
2022-10-12T02:54:26.608Z,99.99
2022-10-12T02:55:26.473Z,99.99
2022-10-12T02:56:26.498Z,99.99
2022-10-12T02:57:26.425Z,99.99
2022-10-12T02:58:26.523Z,99.99
2022-10-12T02:59:26.487Z,99.99
2022-10-12T03:00:26.485Z,99.99
2022-10-12T03:01:26.395Z,99.99
2022-10-12T03:02:26.457Z,99.99
2022-10-12T03:03:26.673Z,99.99
2022-10-12T03:04:26.509Z,99.99
2022-10-12T03:05:26.321Z,99.99
2022-10-12T03:06:26.276Z,99.99
2022-10-12T03:07:26.285Z,99.99
2022-10-12T03:08:26.285Z,99.99
2022-10-12T03:09:26.271Z,99.99
2022-10-12T03:10:26.254Z,99.99
2022-10-12T03:11:26.230Z,99.99
2022-10-12T03:12:26.296Z,99.99
2022-10-12T03:13:26.333Z,99.99
2022-10-12T03:14:26.595Z,99.99
2022-10-12T03:15:26.280Z,99.99
2022-10-12T03:16:26.275Z,99.99
2022-10-12T03:17:26.166Z,99.99
2022-10-12T03:18:26.219Z,99.99
2022-10-12T03:19:26.606Z,99.99
2022-10-12T03:21:00.685Z,99.99
2022-10-12T03:21:58.453Z,99.99
2022-10-12T03:22:57.810Z,99.99
2022-10-12T03:23:57.837Z,99.99
2022-10-12T03:24:57.796Z,99.99
2022-10-12T03:25:57.768Z,99.99
2022-10-12T03:26:57.845Z,99.99
2022-10-12T03:27:57.763Z,99.99
2022-10-12T03:28:57.878Z,99.99
2022-10-12T03:29:57.872Z,99.99
2022-10-12T03:30:57.759Z,99.99
2022-10-12T03:31:57.628Z,99.99
2022-10-12T03:32:57.701Z,99.99
2022-10-12T03:33:57.792Z,99.99
2022-10-12T03:34:57.710Z,99.99
2022-10-12T03:35:57.605Z,99.99
2022-10-12T03:36:57.711Z,99.99
2022-10-12T03:37:57.584Z,99.99
2022-10-12T03:38:57.653Z,99.99
2022-10-12T03:39:57.629Z,99.99
2022-10-12T03:40:57.622Z,99.99
2022-10-12T03:41:57.584Z,99.99
2022-10-12T03:42:57.634Z,99.99
2022-10-12T03:43:57.585Z,99.99
2022-10-12T03:44:57.527Z,99.99
2022-10-12T03:45:57.508Z,99.99
2022-10-12T03:46:57.586Z,99.99
2022-10-12T03:47:59.967Z,99.99
2022-10-12T03:48:58.621Z,99.99
2022-10-12T03:49:57.494Z,99.99
2022-10-12T03:50:57.485Z,99.99
2022-10-12T03:51:57.512Z,99.99
2022-10-12T03:52:57.430Z,99.99
2022-10-12T03:53:57.446Z,99.99
2022-10-12T03:54:57.484Z,99.99
2022-10-12T03:55:57.386Z,99.99
2022-10-12T03:56:57.421Z,99.99
2022-10-12T03:57:57.369Z,99.99
2022-10-12T03:58:57.321Z,99.99
2022-10-12T03:59:57.347Z,99.99
2022-10-12T04:00:57.456Z,99.99
2022-10-12T04:01:57.318Z,99.99
2022-10-12T04:02:57.315Z,99.99
2022-10-12T04:03:57.265Z,99.99
2022-10-12T04:04:57.232Z,99.99
2022-10-12T04:05:57.296Z,99.99
2022-10-12T04:06:57.263Z,99.99
2022-10-12T04:07:57.168Z,99.99
2022-10-12T04:08:57.328Z,99.99
2022-10-12T04:09:57.184Z,99.99
2022-10-12T04:10:57.154Z,99.99
2022-10-12T04:11:57.231Z,99.99
2022-10-12T04:12:57.237Z,99.99
2022-10-12T04:13:57.287Z,99.99
2022-10-12T04:14:57.250Z,99.99
2022-10-12T04:15:57.256Z,99.99
2022-10-12T04:16:57.090Z,99.99
2022-10-12T04:17:57.141Z,99.99
2022-10-12T04:18:57.227Z,99.99
2022-10-12T04:19:57.307Z,99.99
2022-10-12T04:20:57.479Z,99.99
2022-10-12T04:21:57.496Z,99.99
2022-10-12T04:22:57.532Z,99.99
2022-10-12T04:23:57.328Z,99.99
2022-10-12T04:24:57.289Z,99.99
2022-10-12T04:25:57.320Z,99.99
2022-10-12T04:26:57.157Z,99.99
2022-10-12T04:27:57.503Z,99.99
2022-10-12T04:28:57.164Z,99.99
2022-10-12T04:29:56.973Z,99.99
2022-10-12T04:30:56.932Z,99.99
2022-10-12T04:31:57.267Z,99.99
2022-10-12T04:32:56.959Z,99.99
2022-10-12T04:33:56.994Z,99.99
2022-10-12T04:34:56.874Z,99.99
2022-10-12T04:35:56.903Z,99.99
2022-10-12T04:36:56.832Z,99.99
2022-10-12T04:37:56.835Z,99.99
2022-10-12T04:39:00.837Z,99.99
2022-10-12T04:39:56.838Z,99.99
2022-10-12T04:40:56.958Z,99.99
2022-10-12T04:41:56.780Z,99.99
2022-10-12T04:42:57.023Z,99.99
2022-10-12T04:43:56.777Z,99.99
2022-10-12T04:44:57.548Z,99.99
2022-10-12T04:45:57.131Z,99.99
2022-10-12T04:46:57.165Z,99.99
2022-10-12T04:47:56.901Z,99.99
2022-10-12T04:48:57.122Z,99.99
2022-10-12T04:49:56.941Z,99.99
2022-10-12T04:50:57.091Z,99.99
2022-10-12T04:51:56.624Z,99.99
2022-10-12T04:52:56.608Z,99.99
2022-10-12T04:53:56.846Z,99.99
2022-10-12T04:54:56.614Z,99.99
2022-10-12T04:55:56.583Z,99.99
2022-10-12T04:56:56.680Z,99.99
2022-10-12T04:57:56.742Z,99.99
2022-10-12T04:58:56.687Z,99.99
2022-10-12T04:59:56.621Z,99.99
2022-10-12T05:00:56.590Z,99.99
2022-10-12T05:01:56.558Z,99.99
2022-10-12T05:02:56.513Z,99.99
2022-10-12T05:03:56.456Z,99.99
2022-10-12T05:04:56.445Z,99.99
2022-10-12T05:05:56.519Z,99.99
2022-10-12T05:06:56.709Z,99.99
2022-10-12T05:07:56.715Z,99.99
2022-10-12T05:08:56.419Z,99.99
2022-10-12T05:09:56.487Z,99.99
2022-10-12T05:10:56.336Z,99.99
2022-10-12T05:11:56.338Z,99.99
2022-10-12T05:12:56.363Z,99.99
2022-10-12T05:13:56.352Z,99.99
2022-10-12T05:14:56.318Z,99.99
2022-10-12T05:15:56.282Z,99.99
2022-10-12T05:16:56.275Z,99.99
2022-10-12T05:17:56.347Z,99.99
2022-10-12T05:18:56.265Z,99.99
2022-10-12T05:19:56.268Z,99.99
2022-10-12T05:20:57.273Z,99.99
2022-10-12T05:21:56.201Z,99.99
2022-10-12T05:22:56.239Z,99.99
2022-10-12T05:23:56.228Z,99.99
2022-10-12T05:24:56.207Z,99.99
2022-10-12T05:25:56.268Z,99.99
2022-10-12T05:26:56.135Z,99.99
2022-10-12T05:27:56.163Z,99.99
2022-10-12T05:28:56.158Z,99.99
2022-10-12T05:29:56.213Z,99.99
2022-10-12T05:30:56.223Z,99.99
2022-10-12T05:31:56.332Z,99.99
2022-10-12T05:32:56.100Z,99.99
2022-10-12T05:33:56.165Z,99.99
2022-10-12T05:34:56.542Z,99.99
2022-10-12T05:35:56.633Z,99.99
2022-10-12T05:36:56.217Z,99.99
2022-10-12T05:37:56.021Z,99.99
2022-10-12T05:38:56.074Z,99.99
2022-10-12T05:39:56.155Z,99.99
2022-10-12T05:41:00.270Z,99.99
2022-10-12T05:41:56.220Z,99.99
2022-10-12T05:42:56.130Z,99.99
2022-10-12T05:43:55.994Z,99.99
2022-10-12T05:44:55.932Z,99.99
2022-10-12T05:45:55.920Z,99.99
2022-10-12T05:46:55.983Z,99.99
2022-10-12T05:47:55.910Z,99.99
2022-10-12T05:48:56.065Z,99.99
2022-10-12T05:49:55.963Z,99.99
2022-10-12T05:50:56.493Z,99.99
2022-10-12T05:51:55.912Z,99.99
2022-10-12T05:52:55.944Z,99.99
2022-10-12T05:53:55.984Z,99.99
2022-10-12T05:54:55.845Z,99.99
2022-10-12T05:55:55.907Z,99.99
2022-10-12T05:56:55.873Z,99.99
2022-10-12T05:57:56.009Z,99.99
2022-10-12T05:58:55.867Z,99.99
2022-10-12T05:59:56.078Z,99.99
2022-10-12T06:00:55.996Z,99.99
2022-10-12T06:01:55.875Z,99.99
2022-10-12T06:02:55.767Z,99.99
2022-10-12T06:03:55.722Z,99.99
2022-10-12T06:04:55.657Z,99.99
2022-10-12T06:05:55.667Z,99.99
2022-10-12T06:06:55.767Z,99.99
2022-10-12T06:07:57.094Z,99.99
2022-10-12T06:08:55.968Z,99.99
2022-10-12T06:09:55.643Z,99.99
2022-10-12T06:10:55.580Z,99.99
2022-10-12T06:11:55.778Z,99.99
2022-10-12T06:12:56.109Z,99.99
2022-10-12T06:14:28.217Z,99.99
2022-10-12T06:15:27.312Z,99.99
2022-10-12T06:16:27.215Z,99.99
2022-10-12T06:17:27.165Z,99.99
2022-10-12T06:18:27.135Z,99.99
2022-10-12T06:19:36.822Z,99.99
2022-10-12T06:20:27.075Z,99.99
2022-10-12T06:21:34.909Z,99.99
2022-10-12T06:22:28.013Z,99.99
2022-10-12T06:23:27.033Z,99.99
2022-10-12T06:24:26.999Z,99.99
2022-10-12T06:25:27.041Z,99.99
2022-10-12T06:26:26.973Z,99.99
2022-10-12T06:27:26.954Z,99.99
2022-10-12T06:28:27.004Z,99.99
2022-10-12T06:29:26.927Z,99.99
2022-10-12T06:30:26.971Z,99.99
2022-10-12T06:31:26.919Z,99.99
2022-10-12T06:32:26.893Z,99.99
2022-10-12T06:33:26.884Z,99.99
2022-10-12T06:34:26.880Z,99.99
2022-10-12T06:35:26.895Z,99.99
2022-10-12T06:36:26.855Z,99.99
2022-10-12T06:37:48.621Z,99.99
2022-10-12T06:38:27.815Z,99.99
2022-10-12T06:39:26.821Z,99.99
2022-10-12T06:40:26.775Z,99.99
2022-10-12T06:41:26.766Z,99.99
2022-10-12T06:42:26.791Z,99.99
2022-10-12T06:43:26.753Z,99.99
2022-10-12T06:44:26.728Z,99.99
2022-10-12T06:45:26.719Z,99.99
2022-10-12T06:46:26.716Z,99.99
2022-10-12T06:47:26.745Z,99.99
2022-10-12T06:48:26.698Z,99.99
2022-10-12T06:49:26.692Z,99.99
2022-10-12T06:50:26.680Z,99.99
2022-10-12T06:51:26.639Z,99.99
2022-10-12T06:52:26.662Z,99.99
2022-10-12T06:53:26.618Z,99.99
2022-10-12T06:54:26.600Z,99.99
2022-10-12T06:55:26.602Z,99.99
2022-10-12T06:56:26.566Z,99.99
2022-10-12T06:57:26.603Z,99.99
2022-10-12T06:58:26.562Z,99.99
2022-10-12T06:59:26.542Z,99.99
2022-10-12T07:00:26.528Z,99.99
2022-10-12T07:01:26.544Z,99.99
2022-10-12T07:02:26.498Z,99.99
2022-10-12T07:03:26.520Z,99.99
2022-10-12T07:04:26.473Z,99.99
2022-10-12T07:05:26.495Z,99.99
2022-10-12T07:06:26.456Z,99.74
2022-10-12T07:07:26.484Z,99.39
2022-10-12T07:08:26.443Z,99.08
2022-10-12T07:09:26.431Z,98.61
2022-10-12T07:10:26.430Z,98.88
2022-10-12T07:11:26.389Z,98.92
2022-10-12T07:12:26.370Z,98.61
2022-10-12T07:13:26.374Z,98.61
2022-10-12T07:14:26.345Z,98.67
2022-10-12T07:15:26.322Z,98.67
2022-10-12T07:16:26.343Z,98.67
2022-10-12T07:17:26.320Z,98.67
2022-10-12T07:18:26.330Z,98.88
2022-10-12T07:19:26.301Z,98.46
2022-10-12T07:20:26.284Z,98.25
2022-10-12T07:21:26.274Z,98.11
2022-10-12T07:22:26.242Z,97.90
2022-10-12T07:23:26.253Z,97.39
2022-10-12T07:24:26.222Z,96.97
2022-10-12T07:25:26.204Z,96.11
2022-10-12T07:26:26.200Z,96.27
2022-10-12T07:27:26.242Z,96.47
2022-10-12T07:28:26.228Z,96.22
2022-10-12T07:29:26.176Z,95.87
2022-10-12T07:30:26.166Z,95.56
2022-10-12T07:31:26.139Z,94.80
2022-10-12T07:32:26.123Z,94.29
2022-10-12T07:33:26.124Z,93.77
2022-10-12T07:34:26.098Z,92.85
2022-10-12T07:35:26.086Z,92.23
2022-10-12T07:36:41.045Z,92.23
2022-10-12T07:37:27.055Z,92.85
2022-10-12T07:38:26.065Z,92.74
2022-10-12T07:39:26.059Z,92.33
2022-10-12T07:40:26.032Z,91.20
2022-10-12T07:41:26.016Z,91.51
2022-10-12T07:42:26.011Z,91.06
2022-10-12T07:43:25.982Z,90.75
2022-10-12T07:44:26.000Z,90.71
2022-10-12T07:45:25.966Z,91.02
2022-10-12T07:46:25.951Z,90.67
2022-10-12T07:47:25.947Z,89.13
2022-10-12T07:48:25.949Z,89.27
2022-10-12T07:49:25.922Z,89.89
2022-10-12T07:50:25.937Z,90.09
2022-10-12T07:51:25.896Z,89.78
2022-10-12T07:52:25.880Z,89.89
2022-10-12T07:53:25.868Z,89.89
2022-10-12T07:54:29.339Z,89.99
2022-10-12T07:55:25.908Z,90.20
2022-10-12T07:56:25.848Z,90.46
2022-10-12T07:57:25.839Z,90.67
2022-10-12T07:58:25.811Z,90.26
2022-10-12T07:59:25.817Z,90.56
2022-10-12T08:00:25.810Z,90.67
2022-10-12T08:01:25.828Z,90.97
2022-10-12T08:02:25.771Z,90.97
2022-10-12T08:03:25.760Z,90.83
2022-10-12T08:04:25.749Z,90.22
2022-10-12T08:05:25.719Z,90.11
2022-10-12T08:06:25.733Z,89.87
2022-10-12T08:07:25.729Z,89.36
2022-10-12T08:08:25.694Z,89.25
2022-10-12T08:09:25.672Z,89.00
2022-10-12T08:10:25.665Z,89.11
2022-10-12T08:11:25.645Z,89.42
2022-10-12T08:12:25.676Z,89.62
2022-10-12T08:13:25.636Z,89.83
2022-10-12T08:14:25.619Z,89.62
2022-10-12T08:15:25.598Z,89.42
2022-10-12T08:16:25.575Z,89.25
2022-10-12T08:17:25.583Z,89.36
2022-10-12T08:18:25.569Z,89.56
2022-10-12T08:19:25.569Z,89.66
2022-10-12T08:20:25.541Z,89.66
2022-10-12T08:21:25.525Z,89.56
2022-10-12T08:22:25.506Z,89.56
2022-10-12T08:23:25.496Z,89.51
2022-10-12T08:24:25.506Z,89.72
2022-10-12T08:25:25.472Z,89.62
2022-10-12T08:26:25.471Z,90.13
2022-10-12T08:27:25.443Z,90.09
2022-10-12T08:28:25.461Z,89.98
2022-10-12T08:29:25.431Z,89.58
2022-10-12T08:30:25.429Z,89.89
2022-10-12T08:31:25.413Z,89.74
2022-10-12T08:32:25.388Z,89.53
2022-10-12T08:33:25.366Z,89.23
2022-10-12T08:34:25.359Z,89.17
2022-10-12T08:35:25.377Z,89.37
2022-10-12T08:36:25.365Z,89.06
2022-10-12T08:37:25.323Z,88.35
2022-10-12T08:38:25.310Z,87.63
2022-10-12T08:39:25.291Z,87.84
2022-10-12T08:40:25.274Z,87.73
2022-10-12T08:41:25.281Z,87.94
2022-10-12T08:42:25.262Z,87.84
2022-10-12T08:43:25.242Z,87.94
2022-10-12T08:44:25.233Z,87.84
2022-10-12T08:45:30.074Z,87.63
2022-10-12T08:46:26.194Z,87.84
2022-10-12T08:47:25.187Z,88.14
2022-10-12T08:48:25.201Z,88.86
2022-10-12T08:49:25.150Z,88.65
2022-10-12T08:50:25.142Z,88.86
2022-10-12T08:51:25.136Z,89.37
2022-10-12T08:52:25.114Z,88.65
2022-10-12T08:53:25.111Z,88.24
2022-10-12T08:54:25.094Z,88.04
2022-10-12T08:55:25.061Z,88.10
2022-10-12T08:56:25.092Z,88.20
2022-10-12T08:57:25.032Z,88.20
2022-10-12T08:58:25.045Z,88.00
2022-10-12T08:59:25.051Z,87.04
2022-10-12T09:00:25.064Z,87.24
2022-10-12T09:01:25.060Z,86.73
2022-10-12T09:02:24.976Z,85.88
2022-10-12T09:03:24.987Z,85.16
2022-10-12T09:04:24.988Z,85.16
2022-10-12T09:05:24.936Z,85.32
2022-10-12T09:06:24.922Z,85.94
2022-10-12T09:07:24.906Z,83.59
2022-10-12T09:08:24.921Z,82.56
2022-10-12T09:09:24.897Z,83.28
2022-10-12T09:10:24.957Z,83.44
2022-10-12T09:11:24.847Z,83.65
2022-10-12T09:12:24.869Z,83.44
2022-10-12T09:13:24.854Z,83.65
2022-10-12T09:14:24.819Z,83.44
2022-10-12T09:15:24.819Z,82.28
2022-10-12T09:16:24.809Z,82.89
2022-10-12T09:17:24.801Z,83.00
2022-10-12T09:18:24.776Z,83.20
2022-10-12T09:19:24.734Z,83.16
2022-10-12T09:20:24.756Z,83.26
2022-10-12T09:21:24.740Z,82.92
2022-10-12T09:22:24.699Z,82.82
2022-10-12T09:23:24.669Z,82.41
2022-10-12T09:24:24.690Z,83.49
2022-10-12T09:25:24.682Z,83.70
2022-10-12T09:26:24.669Z,83.70
2022-10-12T09:27:24.653Z,83.09
2022-10-12T09:28:24.664Z,81.96
2022-10-12T09:29:24.630Z,81.76
2022-10-12T09:30:24.585Z,81.56
2022-10-12T09:31:24.581Z,82.07
2022-10-12T09:32:24.603Z,81.96
2022-10-12T09:33:24.574Z,80.84
2022-10-12T09:34:24.547Z,79.93
2022-10-12T09:35:24.513Z,80.02
2022-10-12T09:36:24.505Z,78.56
2022-10-12T09:37:24.475Z,79.27
2022-10-12T09:38:24.478Z,79.38
2022-10-12T09:39:28.906Z,79.68
2022-10-12T09:40:24.425Z,79.89
2022-10-12T09:41:24.411Z,80.29
2022-10-12T09:42:24.396Z,79.27
2022-10-12T09:43:24.435Z,78.66
2022-10-12T09:44:24.380Z,77.55
2022-10-12T09:45:24.399Z,78.46
2022-10-12T09:46:24.415Z,77.95
2022-10-12T09:47:24.349Z,77.95
2022-10-12T09:48:24.348Z,76.32
2022-10-12T09:49:24.364Z,76.62
2022-10-12T09:50:24.306Z,77.40
2022-10-12T09:51:24.276Z,77.91
2022-10-12T09:52:24.278Z,78.02
2022-10-12T09:53:24.254Z,77.20
2022-10-12T09:54:24.242Z,76.59
2022-10-12T09:55:24.299Z,77.98
2022-10-12T09:56:24.207Z,76.65
2022-10-12T09:57:24.209Z,74.52
2022-10-12T09:58:24.205Z,73.47
2022-10-12T09:59:24.202Z,74.18
2022-10-12T10:00:24.161Z,74.99
2022-10-12T10:01:24.241Z,75.26
2022-10-12T10:02:24.135Z,75.87
2022-10-12T10:03:27.899Z,76.68
2022-10-12T10:04:25.130Z,76.18
2022-10-12T10:05:24.077Z,75.46
2022-10-12T10:06:24.068Z,74.85
2022-10-12T10:07:24.063Z,75.06
2022-10-12T10:08:24.060Z,75.06
2022-10-12T10:09:24.036Z,75.26
2022-10-12T10:10:29.414Z,74.35
2022-10-12T10:11:25.034Z,72.72
2022-10-12T10:12:23.999Z,73.74
2022-10-12T10:13:23.960Z,74.85
2022-10-12T10:14:23.982Z,74.76
2022-10-12T10:15:23.955Z,73.94
2022-10-12T10:16:23.926Z,73.74
2022-10-12T10:17:23.914Z,74.24
2022-10-12T10:18:23.901Z,74.11
2022-10-12T10:19:23.966Z,73.23
2022-10-12T10:20:23.886Z,73.80
2022-10-12T10:21:23.876Z,74.04
2022-10-12T10:22:23.856Z,74.76
2022-10-12T10:23:23.844Z,75.46
2022-10-12T10:24:23.836Z,76.18
2022-10-12T10:25:23.870Z,75.57
2022-10-12T10:26:23.803Z,75.87
2022-10-12T10:27:23.774Z,74.55
2022-10-12T10:28:23.853Z,74.35
2022-10-12T10:29:23.745Z,74.96
2022-10-12T10:30:33.570Z,75.09
2022-10-12T10:31:24.721Z,75.40
2022-10-12T10:32:23.714Z,76.21
2022-10-12T10:33:23.685Z,76.72
2022-10-12T10:34:23.769Z,76.52
2022-10-12T10:35:23.670Z,75.74
2022-10-12T10:36:23.664Z,75.23
2022-10-12T10:37:23.649Z,75.30
2022-10-12T10:38:23.608Z,77.13
2022-10-12T10:39:23.634Z,76.21
2022-10-12T10:40:23.594Z,74.85
2022-10-12T10:41:23.566Z,73.50
2022-10-12T10:42:23.727Z,74.41
2022-10-12T10:43:23.541Z,74.21
2022-10-12T10:44:23.575Z,73.91
2022-10-12T10:45:23.519Z,75.49
2022-10-12T10:46:23.531Z,73.57
2022-10-12T10:47:23.492Z,72.85
2022-10-12T10:48:23.510Z,74.28
2022-10-12T10:49:23.479Z,73.57
2022-10-12T10:50:23.471Z,73.94
2022-10-12T10:51:23.629Z,74.34
2022-10-12T10:52:23.467Z,73.63
2022-10-12T10:53:23.431Z,73.94
2022-10-12T10:54:23.397Z,73.74
2022-10-12T10:55:23.382Z,72.78
2022-10-12T10:56:23.398Z,73.39
2022-10-12T10:57:23.347Z,72.08
2022-10-12T10:58:23.323Z,70.86
2022-10-12T10:59:23.330Z,72.17
2022-10-12T11:00:40.567Z,73.90
2022-10-12T11:01:24.309Z,71.26
2022-10-12T11:02:23.308Z,71.77
2022-10-12T11:03:23.287Z,71.97
2022-10-12T11:04:23.253Z,71.77
2022-10-12T11:05:23.223Z,72.69
2022-10-12T11:06:23.256Z,72.99
2022-10-12T11:07:23.244Z,73.29
2022-10-12T11:08:23.203Z,73.19
2022-10-12T11:09:23.183Z,74.82
2022-10-12T11:10:23.199Z,74.51
2022-10-12T11:11:23.184Z,74.21
2022-10-12T11:12:27.328Z,74.34
2022-10-12T11:13:24.172Z,73.94
2022-10-12T11:14:23.158Z,71.47
2022-10-12T11:15:23.126Z,71.16
2022-10-12T11:16:23.096Z,70.86
2022-10-12T11:17:23.156Z,72.25
2022-10-12T11:18:23.060Z,69.20
2022-10-12T11:19:23.027Z,72.45
2022-10-12T11:20:23.033Z,70.32
2022-10-12T11:21:23.028Z,71.94
2022-10-12T11:22:23.006Z,72.34
2022-10-12T11:23:23.049Z,72.45
2022-10-12T11:24:22.969Z,71.84
2022-10-12T11:25:22.962Z,71.23
2022-10-12T11:26:22.959Z,67.85
2022-10-12T11:27:22.961Z,68.87
2022-10-12T11:28:22.945Z,70.28
2022-10-12T11:29:22.906Z,68.66
2022-10-12T11:30:22.908Z,68.93
2022-10-12T11:31:22.933Z,69.24
2022-10-12T11:32:23.091Z,69.34
2022-10-12T11:33:22.894Z,69.95
2022-10-12T11:34:22.837Z,71.06
2022-10-12T11:35:22.846Z,71.37
2022-10-12T11:36:22.811Z,68.83
2022-10-12T11:37:22.784Z,69.74
2022-10-12T11:38:22.797Z,68.43
2022-10-12T11:39:22.921Z,69.03
2022-10-12T11:40:30.982Z,68.73
2022-10-12T11:41:44.959Z,69.03
2022-10-12T11:42:23.726Z,68.40
2022-10-12T11:43:22.716Z,69.20
2022-10-12T11:44:27.769Z,67.48
2022-10-12T11:45:23.708Z,67.68
2022-10-12T11:46:22.668Z,68.70
2022-10-12T11:47:22.664Z,68.60
2022-10-12T11:48:26.864Z,69.37
2022-10-12T11:49:22.618Z,69.57
2022-10-12T11:50:22.636Z,68.87
2022-10-12T11:51:22.608Z,68.16
2022-10-12T11:52:27.839Z,69.04
2022-10-12T11:53:23.605Z,67.11
2022-10-12T11:54:22.551Z,68.02
2022-10-12T11:55:22.609Z,68.63
2022-10-12T11:56:22.530Z,67.01
2022-10-12T11:57:22.541Z,66.10
2022-10-12T11:58:36.326Z,69.14
2022-10-12T11:59:23.491Z,67.93
2022-10-12T12:00:22.485Z,67.42
2022-10-12T12:01:22.462Z,66.64
2022-10-12T12:02:22.453Z,66.84
2022-10-12T12:03:22.488Z,68.53
2022-10-12T12:04:41.125Z,67.01
2022-10-12T12:05:23.411Z,67.82
2022-10-12T12:06:22.393Z,66.10
2022-10-12T12:07:22.386Z,65.19
2022-10-12T12:08:22.381Z,65.39
2022-10-12T12:09:22.386Z,65.50
2022-10-12T12:10:22.345Z,64.21
2022-10-12T12:11:22.340Z,65.83
2022-10-12T12:12:22.307Z,66.54
2022-10-12T12:13:22.312Z,67.35
2022-10-12T12:14:22.286Z,66.71
2022-10-12T12:15:22.305Z,66.30
2022-10-12T12:16:22.266Z,66.30
2022-10-12T12:17:22.251Z,66.30
2022-10-12T12:18:22.238Z,66.50
2022-10-12T12:19:22.219Z,66.10
2022-10-12T12:20:22.247Z,65.39
2022-10-12T12:21:22.210Z,65.90
2022-10-12T12:22:22.189Z,66.91
2022-10-12T12:23:22.181Z,65.50
2022-10-12T12:24:22.177Z,65.77
2022-10-12T12:25:22.143Z,66.27
2022-10-12T12:26:22.151Z,67.18
2022-10-12T12:27:22.122Z,66.67
2022-10-12T12:28:22.209Z,66.47
2022-10-12T12:29:22.091Z,67.11
2022-10-12T12:30:22.083Z,65.50
2022-10-12T12:31:22.072Z,65.50
2022-10-12T12:32:22.053Z,67.42
2022-10-12T12:33:22.029Z,65.80
2022-10-12T12:34:22.034Z,66.20
2022-10-12T12:35:22.050Z,64.89
2022-10-12T12:36:21.992Z,65.39
2022-10-12T12:37:22.004Z,66.00
2022-10-12T12:38:21.979Z,64.89
2022-10-12T12:39:21.977Z,66.61
2022-10-12T12:40:21.941Z,64.82
2022-10-12T12:41:21.935Z,66.54
2022-10-12T12:42:21.919Z,67.65
2022-10-12T12:43:21.922Z,67.45
2022-10-12T12:44:21.906Z,65.53
2022-10-12T12:45:21.878Z,66.54
2022-10-12T12:46:21.871Z,66.94
2022-10-12T12:48:23.064Z,65.70
2022-10-12T12:49:21.818Z,67.22
2022-10-12T12:50:21.827Z,66.20
2022-10-12T12:51:21.840Z,65.59
2022-10-12T12:52:21.784Z,65.59
2022-10-12T12:53:21.779Z,64.99
2022-10-12T12:54:21.762Z,66.10
2022-10-12T12:55:21.751Z,66.00